createdAt,value
2023-04-07T00:00:55.612Z,10.20
2023-04-07T00:03:57.733Z,10.20
2023-04-07T00:06:59.998Z,10.10
2023-04-07T00:10:02.009Z,10.20
2023-04-07T00:13:04.001Z,10.20
2023-04-07T00:16:06.250Z,10.20
2023-04-07T00:19:08.213Z,10.30
2023-04-07T00:22:10.474Z,10.30
2023-04-07T00:25:12.524Z,10.20
2023-04-07T00:28:14.415Z,9.90
2023-04-07T00:31:16.479Z,9.80
2023-04-07T00:34:18.475Z,9.80
2023-04-07T00:37:20.440Z,9.90
2023-04-07T00:40:22.537Z,9.90
2023-04-07T00:43:24.732Z,9.90
2023-04-07T00:46:26.792Z,9.80
2023-04-07T00:49:29.262Z,9.90
2023-04-07T00:52:33.294Z,10.10
2023-04-07T00:55:35.316Z,10.10
2023-04-07T00:58:37.297Z,9.90
2023-04-07T01:01:48.055Z,10.10
2023-04-07T01:05:35.905Z,9.90
2023-04-07T01:09:18.225Z,9.90
2023-04-07T01:12:45.335Z,10.00
2023-04-07T01:15:52.805Z,9.90
2023-04-07T01:18:59.570Z,9.90
2023-04-07T01:22:03.849Z,9.90
2023-04-07T01:25:28.692Z,9.90
2023-04-07T01:29:04.816Z,9.90
2023-04-07T01:32:10.229Z,10.00
2023-04-07T01:35:14.231Z,9.90
2023-04-07T01:38:17.618Z,10.00
2023-04-07T01:41:22.157Z,10.10
2023-04-07T01:44:25.690Z,10.00
2023-04-07T01:47:29.773Z,10.00
2023-04-07T01:50:32.118Z,10.00
2023-04-07T01:53:35.598Z,10.00
2023-04-07T01:56:37.456Z,10.00
2023-04-07T01:59:41.649Z,9.90
2023-04-07T02:02:47.387Z,10.00
2023-04-07T02:05:54.745Z,10.00
2023-04-07T02:09:06.209Z,9.90
2023-04-07T02:12:11.996Z,9.90
2023-04-07T02:15:19.564Z,9.90
2023-04-07T02:18:22.454Z,9.90
2023-04-07T02:21:25.808Z,9.90
2023-04-07T02:24:27.776Z,9.80
2023-04-07T02:27:29.999Z,9.70
2023-04-07T02:30:32.447Z,9.50
2023-04-07T02:33:34.608Z,9.70
2023-04-07T02:36:36.675Z,9.70
2023-04-07T02:39:41.948Z,9.70
2023-04-07T02:42:44.639Z,9.40
2023-04-07T02:45:46.913Z,9.40
2023-04-07T02:48:48.921Z,9.20
2023-04-07T02:51:50.910Z,9.10
2023-04-07T02:54:52.903Z,9.40
2023-04-07T02:57:58.295Z,9.20
2023-04-07T03:01:11.128Z,9.30
2023-04-07T03:04:13.425Z,9.40
2023-04-07T03:07:15.594Z,9.40
2023-04-07T03:10:17.852Z,9.30
2023-04-07T03:13:21.894Z,9.40
2023-04-07T03:16:23.967Z,9.40
2023-04-07T03:19:37.965Z,9.40
2023-04-07T03:22:39.967Z,9.30
2023-04-07T03:25:48.237Z,9.20
2023-04-07T03:28:51.199Z,9.20
2023-04-07T03:31:54.996Z,9.10
2023-04-07T03:35:02.313Z,9.00
2023-04-07T03:38:04.581Z,8.80
2023-04-07T03:41:06.730Z,8.80
2023-04-07T03:44:08.811Z,8.90
2023-04-07T03:47:12.912Z,9.00
2023-04-07T03:50:15.440Z,9.10
2023-04-07T03:53:31.864Z,9.10
2023-04-07T03:56:37.233Z,9.20
2023-04-07T03:59:39.742Z,9.20
2023-04-07T04:02:42.424Z,9.10
2023-04-07T04:05:47.025Z,8.90
2023-04-07T04:08:53.959Z,8.90
2023-04-07T04:11:56.676Z,9.00
2023-04-07T04:14:59.599Z,9.00
2023-04-07T04:18:02.355Z,8.90
2023-04-07T04:21:08.313Z,8.90
2023-04-07T04:24:12.411Z,9.00
2023-04-07T04:27:15.231Z,9.10
2023-04-07T04:30:19.234Z,9.00
2023-04-07T04:33:27.363Z,8.90
2023-04-07T04:36:31.740Z,9.10
2023-04-07T04:39:39.177Z,8.90
2023-04-07T04:42:41.687Z,8.90
2023-04-07T04:45:46.054Z,8.90
2023-04-07T04:48:50.439Z,9.00
2023-04-07T04:51:57.005Z,9.00
2023-04-07T04:54:59.212Z,9.20
2023-04-07T04:58:03.209Z,9.30
2023-04-07T05:01:18.488Z,9.30
2023-04-07T05:04:29.580Z,9.30
2023-04-07T05:07:43.658Z,8.90
2023-04-07T05:10:48.813Z,8.90
2023-04-07T05:13:55.658Z,8.90
2023-04-07T05:17:01.570Z,8.90
2023-04-07T05:20:04.845Z,8.90
2023-04-07T05:23:12.675Z,9.00
2023-04-07T05:26:15.826Z,9.10
2023-04-07T05:29:18.800Z,9.40
2023-04-07T05:32:23.342Z,9.30
2023-04-07T05:35:26.477Z,9.30
2023-04-07T05:38:31.662Z,9.20
2023-04-07T05:41:42.333Z,9.40
2023-04-07T05:44:45.159Z,9.40
2023-04-07T05:47:48.200Z,9.40
2023-04-07T05:50:50.085Z,9.20
2023-04-07T05:53:53.910Z,9.30
2023-04-07T05:56:58.366Z,9.30
2023-04-07T06:00:04.650Z,9.10
2023-04-07T06:03:16.173Z,9.20
2023-04-07T06:06:28.991Z,9.30
2023-04-07T06:09:30.991Z,9.50
2023-04-07T06:15:57.027Z,9.80
2023-04-07T06:18:59.358Z,9.90
2023-04-07T06:22:04.238Z,10.00
2023-04-07T06:25:07.038Z,10.10
2023-04-07T06:28:09.262Z,10.30
2023-04-07T06:31:11.476Z,10.40
2023-04-07T06:34:16.772Z,10.70
2023-04-07T06:37:18.933Z,11.10
2023-04-07T06:40:23.228Z,11.10
2023-04-07T06:43:25.247Z,11.20
2023-04-07T06:46:36.193Z,11.40
2023-04-07T06:49:38.230Z,11.40
2023-04-07T06:52:40.804Z,11.30
2023-04-07T06:55:42.678Z,11.40
2023-04-07T06:58:47.694Z,11.40
2023-04-07T07:01:50.032Z,11.90
2023-04-07T07:04:52.266Z,11.90
2023-04-07T07:07:54.232Z,11.90
2023-04-07T07:10:56.469Z,11.90
2023-04-07T07:13:59.055Z,12.10
2023-04-07T07:17:01.752Z,13.40
2023-04-07T07:20:04.135Z,13.60
2023-04-07T07:23:06.101Z,14.00
2023-04-07T07:26:08.048Z,13.70
2023-04-07T07:29:11.356Z,13.60
2023-04-07T07:32:13.274Z,13.60
2023-04-07T07:35:15.950Z,13.90
2023-04-07T07:38:17.970Z,14.30
2023-04-07T07:41:20.238Z,14.30
2023-04-07T07:44:24.443Z,14.90
2023-04-07T07:47:26.866Z,16.80
2023-04-07T07:50:28.887Z,18.10
2023-04-07T07:53:30.938Z,18.60
2023-04-07T07:56:32.975Z,19.30
2023-04-07T07:59:35.162Z,19.60
2023-04-07T08:02:39.586Z,19.90
2023-04-07T08:05:41.622Z,20.20
2023-04-07T08:08:43.556Z,20.80
2023-04-07T08:11:45.719Z,21.10
2023-04-07T08:14:47.679Z,21.00
2023-04-07T08:17:49.622Z,20.70
2023-04-07T08:20:51.648Z,20.40
2023-04-07T08:23:54.008Z,21.10
2023-04-07T08:26:55.929Z,21.30
2023-04-07T08:30:01.898Z,21.80
2023-04-07T08:33:06.000Z,21.70
2023-04-07T08:36:08.041Z,22.10
2023-04-07T08:39:10.069Z,21.50
2023-04-07T08:42:12.834Z,20.00
2023-04-07T08:45:17.417Z,19.20
2023-04-07T08:48:24.657Z,18.90
2023-04-07T08:51:28.264Z,18.50
2023-04-07T08:54:30.379Z,19.40
2023-04-07T08:57:33.532Z,20.20
2023-04-07T09:00:35.525Z,21.00
2023-04-07T09:03:38.056Z,21.20
2023-04-07T09:06:40.085Z,20.90
2023-04-07T09:09:41.899Z,21.10
2023-04-07T09:12:43.958Z,20.40
2023-04-07T09:15:45.874Z,21.10
2023-04-07T09:18:47.991Z,20.50
2023-04-07T09:21:53.496Z,20.10
2023-04-07T09:25:10.784Z,19.40
2023-04-07T09:28:15.346Z,20.00
2023-04-07T09:31:17.421Z,19.90
2023-04-07T09:34:30.352Z,19.70
2023-04-07T09:37:32.464Z,19.80
2023-04-07T09:40:34.665Z,19.00
2023-04-07T09:43:44.320Z,18.50
2023-04-07T09:46:56.634Z,18.20
2023-04-07T09:49:58.840Z,17.80
2023-04-07T09:53:00.819Z,17.60
2023-04-07T09:56:04.054Z,17.40
2023-04-07T09:59:06.126Z,17.00
2023-04-07T10:02:08.713Z,16.90
2023-04-07T10:05:11.553Z,16.50
2023-04-07T10:08:14.759Z,16.40
2023-04-07T10:11:16.925Z,16.40
2023-04-07T10:14:21.312Z,16.30
2023-04-07T10:17:24.104Z,16.50
2023-04-07T10:20:27.027Z,16.50
2023-04-07T10:23:34.939Z,17.80
2023-04-07T10:26:40.684Z,17.90
2023-04-07T10:29:46.505Z,18.40
2023-04-07T10:32:50.441Z,18.80
2023-04-07T10:36:06.668Z,18.10
2023-04-07T10:39:08.681Z,17.80
2023-04-07T10:42:38.831Z,17.80
2023-04-07T10:45:49.443Z,18.10
2023-04-07T10:49:09.384Z,17.80
2023-04-07T11:03:25.985Z,17.30
2023-04-07T11:06:28.316Z,17.10
2023-04-07T11:09:30.187Z,17.20
2023-04-07T11:12:32.475Z,17.70
2023-04-07T11:15:40.304Z,18.90
2023-04-07T11:18:43.780Z,19.50
2023-04-07T11:21:45.858Z,19.60
2023-04-07T11:24:47.708Z,19.40
2023-04-07T11:27:49.687Z,19.20
2023-04-07T11:30:54.349Z,19.20
2023-04-07T11:34:01.576Z,18.70
2023-04-07T11:37:26.204Z,18.40
2023-04-07T11:40:37.121Z,18.40
2023-04-07T11:43:39.095Z,18.20
2023-04-07T11:46:58.803Z,18.00
2023-04-07T11:50:01.006Z,17.00
2023-04-07T11:53:03.046Z,17.00
2023-04-07T11:56:08.858Z,16.70
2023-04-07T11:59:22.817Z,16.40
2023-04-07T12:02:34.649Z,16.40
2023-04-07T12:05:44.863Z,16.10
2023-04-07T12:08:46.951Z,15.90
2023-04-07T12:11:51.997Z,15.90
2023-04-07T12:14:54.607Z,15.60
2023-04-07T12:17:56.604Z,15.40
2023-04-07T12:20:58.967Z,15.30
2023-04-07T12:24:00.882Z,15.20
2023-04-07T12:27:02.937Z,15.00
2023-04-07T12:30:05.611Z,15.00
2023-04-07T12:33:07.861Z,14.90
2023-04-07T12:36:10.009Z,14.80
2023-04-07T12:39:12.157Z,14.90
2023-04-07T12:42:14.117Z,14.80
2023-04-07T12:45:16.340Z,14.90
2023-04-07T12:48:18.226Z,14.90
2023-04-07T12:51:20.184Z,15.10
2023-04-07T12:54:22.221Z,15.20
2023-04-07T12:57:24.810Z,15.20
2023-04-07T13:00:27.528Z,15.10
2023-04-07T13:03:29.702Z,15.30
2023-04-07T13:06:32.500Z,15.30
2023-04-07T13:09:34.431Z,15.40
2023-04-07T13:12:37.285Z,15.60
2023-04-07T13:15:39.573Z,15.70
2023-04-07T13:18:41.553Z,15.80
2023-04-07T13:21:46.684Z,16.00
2023-04-07T13:24:50.050Z,16.40
2023-04-07T13:27:51.928Z,16.70
2023-04-07T13:30:54.182Z,16.90
2023-04-07T13:33:56.051Z,17.10
2023-04-07T13:37:01.986Z,16.90
2023-04-07T13:40:04.294Z,16.60
2023-04-07T13:43:07.380Z,16.90
2023-04-07T13:46:24.579Z,16.30
2023-04-07T13:49:31.656Z,16.50
2023-04-07T13:52:33.592Z,16.70
2023-04-07T13:55:35.584Z,16.60
2023-04-07T13:58:37.604Z,16.40
2023-04-07T14:01:39.774Z,16.40
2023-04-07T14:04:41.760Z,16.40
2023-04-07T14:07:43.832Z,16.40
2023-04-07T14:10:47.809Z,16.20
2023-04-07T14:13:50.856Z,15.90
2023-04-07T14:16:52.912Z,15.90
2023-04-07T14:19:56.312Z,15.80
2023-04-07T14:22:58.196Z,15.90
2023-04-07T14:26:00.501Z,16.10
2023-04-07T14:29:02.487Z,16.30
2023-04-07T14:32:04.572Z,16.70
2023-04-07T14:35:07.119Z,16.90
2023-04-07T14:38:09.222Z,16.90
2023-04-07T14:41:11.206Z,17.10
2023-04-07T14:44:13.232Z,17.00
2023-04-07T14:47:15.196Z,16.50
2023-04-07T14:50:17.229Z,16.40
2023-04-07T14:53:19.580Z,16.60
2023-04-07T14:56:21.744Z,16.50
2023-04-07T14:59:23.760Z,16.70
2023-04-07T15:02:26.073Z,16.70
2023-04-07T15:05:30.072Z,16.90
2023-04-07T15:08:32.068Z,16.80
2023-04-07T15:11:34.224Z,16.50
2023-04-07T15:14:36.156Z,16.50
2023-04-07T15:17:43.848Z,16.40
2023-04-07T15:20:46.646Z,16.10
2023-04-07T15:23:48.885Z,16.00
2023-04-07T15:26:50.982Z,15.90
2023-04-07T15:29:53.080Z,15.60
2023-04-07T15:32:59.193Z,15.40
2023-04-07T15:36:01.191Z,15.30
2023-04-07T15:39:04.805Z,15.40
2023-04-07T15:42:06.786Z,15.40
2023-04-07T15:45:09.204Z,15.20
2023-04-07T15:48:13.968Z,15.20
2023-04-07T15:51:15.954Z,15.00
2023-04-07T15:54:18.117Z,15.00
2023-04-07T15:57:20.112Z,15.00
2023-04-07T16:00:22.254Z,14.90
2023-04-07T16:03:24.507Z,14.80
2023-04-07T16:06:26.829Z,14.70
2023-04-07T16:09:28.889Z,14.80
2023-04-07T16:12:31.056Z,14.80
2023-04-07T16:15:40.749Z,14.70
2023-04-07T16:18:43.650Z,14.60
2023-04-07T16:21:45.660Z,14.60
2023-04-07T16:24:47.698Z,14.60
2023-04-07T16:27:52.782Z,14.40
2023-04-07T16:30:54.745Z,14.50
2023-04-07T16:33:56.773Z,14.40
2023-04-07T16:37:01.036Z,14.60
2023-04-07T16:40:03.207Z,14.80
2023-04-07T16:43:05.169Z,14.80
2023-04-07T16:46:07.247Z,14.80
2023-04-07T16:49:11.762Z,14.60
2023-04-07T16:52:13.762Z,14.50
2023-04-07T16:55:15.819Z,14.40
2023-04-07T16:58:17.811Z,14.20
2023-04-07T17:01:19.843Z,14.20
2023-04-07T17:04:23.035Z,14.20
2023-04-07T17:07:25.069Z,14.20
2023-04-07T17:10:27.959Z,14.10
2023-04-07T17:13:29.968Z,14.10
2023-04-07T17:16:31.994Z,14.10
2023-04-07T17:19:36.459Z,14.00
2023-04-07T17:22:38.779Z,14.00
2023-04-07T17:25:41.080Z,13.90
2023-04-07T17:28:43.067Z,13.90
2023-04-07T17:31:45.037Z,13.80
2023-04-07T17:34:47.081Z,13.80
2023-04-07T17:37:49.507Z,13.90
2023-04-07T17:40:57.909Z,13.70
2023-04-07T17:44:00.049Z,13.70
2023-04-07T17:47:02.000Z,13.60
2023-04-07T17:50:04.618Z,13.60
2023-04-07T17:53:06.568Z,13.70
2023-04-07T17:56:11.012Z,13.60
2023-04-07T17:59:12.993Z,13.50
2023-04-07T18:02:15.261Z,13.50
2023-04-07T18:05:17.580Z,13.50
2023-04-07T18:08:19.597Z,13.50
2023-04-07T18:11:21.774Z,13.50
2023-04-07T18:14:24.217Z,13.50
2023-04-07T18:17:26.163Z,13.40
2023-04-07T18:20:28.299Z,13.40
2023-04-07T18:23:30.434Z,13.40
2023-04-07T18:26:32.484Z,13.40
2023-04-07T18:29:34.443Z,13.40
2023-04-07T18:32:36.683Z,13.40
2023-04-07T18:35:38.949Z,13.20
2023-04-07T18:38:41.048Z,13.30
2023-04-07T18:41:43.285Z,13.20
2023-04-07T18:44:45.500Z,13.10
2023-04-07T18:47:47.546Z,13.20
2023-04-07T18:50:51.542Z,13.20
2023-04-07T18:53:53.686Z,13.10
2023-04-07T18:56:57.277Z,13.10
2023-04-07T18:59:59.282Z,13.10
2023-04-07T19:03:01.481Z,13.20
2023-04-07T19:06:04.736Z,13.10
2023-04-07T19:09:06.931Z,13.10
2023-04-07T19:12:08.951Z,13.10
2023-04-07T19:15:11.515Z,13.10
2023-04-07T19:18:13.594Z,13.20
2023-04-07T19:21:15.619Z,13.20
2023-04-07T19:24:17.594Z,13.20
2023-04-07T19:27:19.587Z,13.10
2023-04-07T19:30:21.825Z,13.10
2023-04-07T19:33:23.923Z,13.10
2023-04-07T19:36:26.683Z,13.00
2023-04-07T19:39:28.822Z,13.00
2023-04-07T19:42:31.438Z,13.00
2023-04-07T19:45:33.509Z,12.90
2023-04-07T19:48:35.740Z,13.00
2023-04-07T19:51:37.757Z,13.00
2023-04-07T19:54:40.428Z,12.90
2023-04-07T19:57:42.823Z,13.00
2023-04-07T20:00:48.498Z,12.90
2023-04-07T20:03:50.664Z,13.00
2023-04-07T20:06:52.704Z,13.00
2023-04-07T20:09:56.187Z,12.90
2023-04-07T20:12:58.201Z,12.90
2023-04-07T20:16:00.126Z,12.90
2023-04-07T20:19:02.185Z,12.90
2023-04-07T20:22:06.711Z,12.90
2023-04-07T20:25:09.300Z,12.80
2023-04-07T20:28:11.386Z,12.70
2023-04-07T20:31:14.229Z,12.80
2023-04-07T20:34:16.649Z,12.70
2023-04-07T20:37:22.736Z,12.70
2023-04-07T20:40:24.993Z,12.70
2023-04-07T20:43:27.112Z,12.70
2023-04-07T20:46:29.293Z,12.70
2023-04-07T20:52:38.415Z,12.60
2023-04-07T20:55:40.792Z,12.60
2023-04-07T20:58:42.920Z,12.60
2023-04-07T21:01:45.743Z,12.60
2023-04-07T21:04:47.873Z,12.60
2023-04-07T21:07:51.854Z,12.40
2023-04-07T21:10:53.867Z,12.50
2023-04-07T21:13:55.840Z,12.50
2023-04-07T21:16:58.209Z,12.40
2023-04-07T21:20:00.195Z,12.40
2023-04-07T21:23:02.606Z,12.40
2023-04-07T21:26:04.730Z,12.40
2023-04-07T21:29:06.775Z,12.40
2023-04-07T21:32:09.167Z,12.40
2023-04-07T21:35:11.564Z,12.40
2023-04-07T21:38:13.672Z,12.40
2023-04-07T21:41:15.990Z,12.30
2023-04-07T21:44:18.020Z,12.30
2023-04-07T21:47:20.086Z,12.20
2023-04-07T21:50:22.314Z,12.20
2023-04-07T21:53:24.514Z,12.30
2023-04-07T21:56:28.399Z,12.20
2023-04-07T21:59:30.956Z,12.10
2023-04-07T22:02:33.367Z,12.20
2023-04-07T22:05:41.410Z,12.10
2023-04-07T22:08:48.849Z,12.20
2023-04-07T22:12:02.482Z,12.20
2023-04-07T22:15:08.379Z,12.10
2023-04-07T22:18:13.221Z,12.10
2023-04-07T22:21:15.648Z,12.10
2023-04-07T22:24:18.209Z,12.10
2023-04-07T22:27:20.185Z,12.10
2023-04-07T22:30:22.569Z,12.20
2023-04-07T22:33:24.751Z,12.10
2023-04-07T22:36:27.407Z,12.10
2023-04-07T22:39:29.360Z,12.10
2023-04-07T22:42:31.424Z,12.10
2023-04-07T22:45:33.483Z,12.00
2023-04-07T22:48:35.433Z,12.00
2023-04-07T22:51:37.487Z,12.00
2023-04-07T22:54:39.752Z,12.00
2023-04-07T22:57:41.697Z,12.00
2023-04-07T23:00:43.659Z,12.00
2023-04-07T23:03:46.222Z,12.00
2023-04-07T23:06:48.168Z,12.00
2023-04-07T23:09:50.472Z,12.00
2023-04-07T23:12:52.954Z,12.00
2023-04-07T23:15:58.067Z,12.00
2023-04-07T23:19:00.179Z,12.00
2023-04-07T23:22:02.128Z,12.00
2023-04-07T23:25:04.331Z,12.00
2023-04-07T23:28:06.589Z,12.00
2023-04-07T23:31:08.829Z,11.90
2023-04-07T23:34:10.814Z,12.00
2023-04-07T23:37:12.759Z,11.90
2023-04-07T23:40:14.956Z,11.90
2023-04-07T23:43:17.079Z,12.00
2023-04-07T23:46:19.395Z,12.00
2023-04-07T23:49:21.617Z,11.90
2023-04-07T23:52:23.785Z,12.00
2023-04-07T23:55:25.812Z,11.90
2023-04-07T23:58:27.759Z,11.90
